createdAt,value
2019-03-08T00:00:13.117Z,8.4
2019-03-08T00:03:32.579Z,8.3
2019-03-08T00:04:39.105Z,8
2019-03-08T00:05:45.546Z,6.9
2019-03-08T00:06:52.056Z,6.4
2019-03-08T00:07:58.567Z,9.4
2019-03-08T00:09:05.094Z,10.8
2019-03-08T00:10:11.056Z,5
2019-03-08T00:13:31.003Z,8.2
2019-03-08T00:14:37.531Z,8.5
2019-03-08T00:17:57.000Z,7.3
2019-03-08T00:21:16.520Z,7.2
2019-03-08T00:23:29.504Z,7.6
2019-03-08T00:25:42.049Z,8.1
2019-03-08T00:27:55.471Z,8.2
2019-03-08T00:29:01.940Z,9.6
2019-03-08T00:30:08.482Z,7
2019-03-08T00:31:14.914Z,7.9
2019-03-08T00:33:27.928Z,6.5
2019-03-08T00:34:34.045Z,5.8
2019-03-08T00:35:40.899Z,8.7
2019-03-08T00:36:47.426Z,5.7
2019-03-08T00:37:53.936Z,8
2019-03-08T00:39:00.380Z,7.4
2019-03-08T00:40:06.008Z,7.9
2019-03-08T00:41:13.420Z,9.3
2019-03-08T00:42:19.091Z,6
2019-03-08T00:43:26.395Z,8.8
2019-03-08T00:44:32.854Z,6.1
2019-03-08T00:45:39.399Z,5.4
2019-03-08T00:46:45.849Z,6.7
2019-03-08T00:47:52.332Z,8.1
2019-03-08T00:48:58.863Z,8.7
2019-03-08T00:52:18.293Z,7.1
2019-03-08T00:53:24.813Z,8.2
2019-03-08T00:54:31.319Z,10.7
2019-03-08T00:55:37.826Z,4.9
2019-03-08T00:56:44.276Z,5.6
2019-03-08T00:57:50.765Z,6.4
2019-03-08T00:58:57.268Z,8.8
2019-03-08T01:00:03.077Z,8.2
2019-03-08T01:02:16.750Z,9.9
2019-03-08T01:04:29.724Z,5.4
2019-03-08T01:05:36.234Z,7
2019-03-08T01:06:42.750Z,9.3
2019-03-08T01:07:49.257Z,7.4
2019-03-08T01:08:55.708Z,7.8
2019-03-08T01:11:08.715Z,7.2
2019-03-08T01:12:15.215Z,8
2019-03-08T01:15:34.707Z,8.5
2019-03-08T01:17:47.662Z,8.4
2019-03-08T01:18:54.186Z,7.6
2019-03-08T01:20:00.695Z,7
2019-03-08T01:21:07.016Z,6.8
2019-03-08T01:22:13.671Z,6.1
2019-03-08T01:23:20.119Z,8.7
2019-03-08T01:24:26.639Z,6.4
2019-03-08T01:25:33.153Z,8.8
2019-03-08T01:27:46.165Z,6.9
2019-03-08T01:29:59.151Z,6.4
2019-03-08T01:31:05.641Z,8
2019-03-08T01:32:12.131Z,6
2019-03-08T01:33:18.607Z,6.9
2019-03-08T01:34:25.125Z,7.2
2019-03-08T01:36:38.078Z,6.6
2019-03-08T01:37:44.056Z,7.3
2019-03-08T01:38:51.009Z,5.9
2019-03-08T01:41:04.076Z,4.9
2019-03-08T01:42:10.575Z,9.4
2019-03-08T01:43:17.045Z,5.1
2019-03-08T01:44:23.500Z,6.6
2019-03-08T01:46:36.547Z,8
2019-03-08T01:47:43.013Z,5.8
2019-03-08T01:48:49.481Z,8
2019-03-08T01:49:55.973Z,4.9
2019-03-08T01:51:02.518Z,6.2
2019-03-08T01:55:28.488Z,5.7
2019-03-08T01:56:34.952Z,8.6
2019-03-08T01:57:41.046Z,4
2019-03-08T01:58:47.960Z,6
2019-03-08T01:59:54.473Z,7.5
2019-03-08T02:02:07.423Z,6
2019-03-08T02:03:13.943Z,7.3
2019-03-08T02:04:20.421Z,7.8
2019-03-08T02:06:33.427Z,4.6
2019-03-08T02:07:39.895Z,5.8
2019-03-08T02:08:46.430Z,6.8
2019-03-08T02:10:59.402Z,7.5
2019-03-08T02:13:12.409Z,6.5
2019-03-08T02:15:25.334Z,6.9
2019-03-08T02:17:38.382Z,5
2019-03-08T02:20:57.829Z,6.1
2019-03-08T02:22:04.308Z,7.1
2019-03-08T02:24:17.293Z,9
2019-03-08T02:25:23.833Z,7.5
2019-03-08T02:26:30.322Z,5.8
2019-03-08T02:27:36.754Z,10.1
2019-03-08T02:28:43.316Z,7.4
2019-03-08T02:29:49.772Z,7.9
2019-03-08T02:33:09.288Z,9.8
2019-03-08T02:34:15.723Z,9.4
2019-03-08T02:35:22.248Z,8.2
2019-03-08T02:36:28.742Z,9.1
2019-03-08T02:37:35.222Z,7.9
2019-03-08T02:38:41.728Z,8.6
2019-03-08T02:39:48.229Z,8
2019-03-08T02:48:40.171Z,6.7
2019-03-08T02:49:46.721Z,5.9
2019-03-08T02:50:53.190Z,5.9
2019-03-08T02:51:59.714Z,7.9
2019-03-08T02:55:19.135Z,8.3
2019-03-08T02:56:25.650Z,7.9
2019-03-08T02:58:38.659Z,8.6
2019-03-08T02:59:45.171Z,9.1
2019-03-08T03:00:51.617Z,6.6
2019-03-08T03:01:58.126Z,8.7
2019-03-08T03:05:17.006Z,6.2
2019-03-08T03:07:30.063Z,7.9
2019-03-08T03:08:37.154Z,9.4
2019-03-08T03:10:50.010Z,6.8
2019-03-08T03:13:03.122Z,8
2019-03-08T03:14:09.569Z,7.8
2019-03-08T03:15:16.084Z,8.1
2019-03-08T03:16:22.591Z,7
2019-03-08T03:17:29.115Z,6.9
2019-03-08T03:19:42.071Z,6.8
2019-03-08T03:20:48.599Z,6.2
2019-03-08T03:21:55.057Z,7.1
2019-03-08T03:23:01.583Z,8
2019-03-08T03:24:08.027Z,6.6
2019-03-08T03:25:14.554Z,7.5
2019-03-08T03:26:21.064Z,5.5
2019-03-08T03:27:27.585Z,6.3
2019-03-08T03:28:34.031Z,6.3
2019-03-08T03:29:40.587Z,9
2019-03-08T03:31:53.502Z,7
2019-03-08T03:33:00.045Z,7
2019-03-08T03:34:06.051Z,7.8
2019-03-08T03:35:13.004Z,7.6
2019-03-08T03:41:51.996Z,4.6
2019-03-08T03:42:58.049Z,5
2019-03-08T03:44:05.022Z,6.3
2019-03-08T03:45:11.455Z,5.7
2019-03-08T03:47:24.458Z,4.7
2019-03-08T03:48:30.971Z,7.2
2019-03-08T03:50:44.007Z,6.1
2019-03-08T03:51:50.428Z,4
2019-03-08T03:52:56.945Z,5
2019-03-08T03:54:03.530Z,3.9
2019-03-08T03:55:09.921Z,3.7
2019-03-08T03:58:29.046Z,4.7
2019-03-08T03:59:35.934Z,5
2019-03-08T04:01:48.945Z,6.3
2019-03-08T04:02:55.462Z,4
2019-03-08T04:06:14.881Z,7.3
2019-03-08T04:07:21.400Z,5.4
2019-03-08T04:08:27.880Z,6.4
2019-03-08T04:10:40.945Z,6
2019-03-08T04:11:47.038Z,6.1
2019-03-08T04:17:19.856Z,5.2
2019-03-08T04:18:26.384Z,5.6
2019-03-08T04:19:32.833Z,5.9
2019-03-08T04:20:39.000Z,6.1
2019-03-08T04:21:45.862Z,5.8
2019-03-08T04:22:52.370Z,6.5
2019-03-08T04:23:58.082Z,5.6
2019-03-08T04:25:05.035Z,5.3
2019-03-08T04:26:11.877Z,4.5
2019-03-08T04:27:18.374Z,5.2
2019-03-08T04:28:24.841Z,6.5
2019-03-08T04:29:31.325Z,6.1
2019-03-08T04:30:37.837Z,5.3
2019-03-08T04:31:44.028Z,5.4
2019-03-08T04:32:50.787Z,3.4
2019-03-08T04:33:57.329Z,6.1
2019-03-08T04:35:03.837Z,4.5
2019-03-08T04:36:10.030Z,5.6
2019-03-08T04:37:16.771Z,4.3
2019-03-08T04:38:23.321Z,6.1
2019-03-08T04:39:29.769Z,5.7
2019-03-08T04:40:36.029Z,5
2019-03-08T04:42:49.269Z,8.2
2019-03-08T04:43:55.799Z,3.6
2019-03-08T04:45:02.266Z,5.2
2019-03-08T04:46:08.789Z,4.5
2019-03-08T04:47:15.272Z,3.9
2019-03-08T04:48:21.722Z,8.1
2019-03-08T04:49:28.243Z,3.4
2019-03-08T04:50:34.777Z,3.8
2019-03-08T04:55:00.733Z,4.9
2019-03-08T04:56:07.239Z,3.7
2019-03-08T04:57:13.758Z,4.2
2019-03-08T04:58:20.224Z,4.2
2019-03-08T05:00:33.219Z,3.5
2019-03-08T05:01:39.670Z,5
2019-03-08T05:03:52.734Z,3.7
2019-03-08T05:04:59.017Z,4
2019-03-08T05:07:12.154Z,4.1
2019-03-08T05:08:18.652Z,4.2
2019-03-08T05:09:25.205Z,3.9
2019-03-08T05:10:31.664Z,4.3
2019-03-08T05:12:44.690Z,2.9
2019-03-08T05:13:51.202Z,3.2
2019-03-08T05:14:57.064Z,2.8
2019-03-08T05:16:04.177Z,2.9
2019-03-08T05:17:10.653Z,3.3
2019-03-08T05:18:17.162Z,2
2019-03-08T05:19:23.615Z,2.8
2019-03-08T05:20:30.142Z,3.1
2019-03-08T05:21:36.664Z,4.5
2019-03-08T05:23:49.631Z,2.9
2019-03-08T05:24:56.144Z,3.6
2019-03-08T05:26:02.618Z,2.2
2019-03-08T05:28:15.583Z,2.3
2019-03-08T05:29:22.101Z,2.8
2019-03-08T05:30:28.565Z,2.7
2019-03-08T05:31:35.087Z,4.1
2019-03-08T05:33:48.071Z,3.1
2019-03-08T05:34:54.597Z,5.1
2019-03-08T05:36:01.061Z,5.8
2019-03-08T05:37:07.580Z,5.4
2019-03-08T05:40:27.040Z,4.4
2019-03-08T05:41:33.568Z,6.9
2019-03-08T05:42:40.035Z,5.3
2019-03-08T05:44:53.023Z,6.1
2019-03-08T05:48:12.525Z,6.1
2019-03-08T05:49:18.997Z,6.9
2019-03-08T05:50:25.502Z,6.7
2019-03-08T05:51:31.998Z,7.8
2019-03-08T05:54:51.525Z,9
2019-03-08T05:55:57.968Z,8.8
2019-03-08T05:57:04.504Z,10.4
2019-03-08T05:58:11.012Z,6.4
2019-03-08T06:00:23.986Z,12.3
2019-03-08T06:01:30.487Z,9.4
2019-03-08T06:02:36.982Z,6.5
2019-03-08T06:03:43.453Z,8.5
2019-03-08T06:04:49.956Z,10
2019-03-08T06:05:56.449Z,9.5
2019-03-08T06:07:03.043Z,5.8
2019-03-08T06:08:09.434Z,9.4
2019-03-08T06:09:15.948Z,6.6
2019-03-08T06:10:22.044Z,9.2
2019-03-08T06:12:35.434Z,8.8
2019-03-08T06:13:41.930Z,14.2
2019-03-08T06:14:48.440Z,9
2019-03-08T06:17:01.436Z,10.2
2019-03-08T06:18:07.909Z,6.5
2019-03-08T06:19:14.440Z,11.4
2019-03-08T06:20:20.905Z,9.7
2019-03-08T06:21:27.447Z,10.5
2019-03-08T06:22:33.878Z,8.6
2019-03-08T06:24:46.878Z,8.3
2019-03-08T06:25:53.402Z,6.5
2019-03-08T06:26:59.092Z,8.8
2019-03-08T06:29:12.845Z,8.3
2019-03-08T06:30:19.037Z,10.3
2019-03-08T06:32:32.388Z,9.5
2019-03-08T06:33:38.837Z,9.1
2019-03-08T06:34:45.345Z,8.1
2019-03-08T06:35:51.868Z,8.3
2019-03-08T06:36:58.376Z,8
2019-03-08T06:38:04.833Z,12.4
2019-03-08T06:40:17.856Z,9.3
2019-03-08T06:42:30.832Z,10.5
2019-03-08T06:43:37.300Z,10.5
2019-03-08T06:46:56.822Z,9.2
2019-03-08T06:49:09.784Z,9.1
2019-03-08T06:51:22.783Z,12.1
2019-03-08T06:53:35.780Z,11.5
2019-03-08T06:54:42.319Z,9.1
2019-03-08T06:56:55.383Z,9.1
2019-03-08T06:58:01.078Z,9.3
2019-03-08T07:00:14.747Z,9.6
2019-03-08T07:01:21.264Z,13.3
2019-03-08T07:04:40.747Z,8.1
2019-03-08T07:05:47.219Z,10.5
2019-03-08T07:06:53.727Z,9.6
2019-03-08T07:08:00.273Z,10.3
2019-03-08T07:09:06.074Z,7.8
2019-03-08T07:10:13.211Z,10.2
2019-03-08T07:11:19.756Z,11.8
2019-03-08T07:13:32.713Z,9.4
2019-03-08T07:16:52.186Z,12
2019-03-08T07:19:05.191Z,10.9
2019-03-08T07:20:11.819Z,10.3
2019-03-08T07:21:18.227Z,8.5
2019-03-08T07:23:31.172Z,9.4
2019-03-08T07:25:44.153Z,9
2019-03-08T07:26:50.663Z,9.4
2019-03-08T07:27:57.162Z,10.7
2019-03-08T07:30:10.193Z,11.5
2019-03-08T07:32:23.158Z,10.5
2019-03-08T07:33:29.652Z,10
2019-03-08T07:34:36.149Z,9.4
2019-03-08T07:35:42.684Z,7.3
2019-03-08T07:36:49.144Z,10.5
2019-03-08T07:37:55.613Z,9.9
2019-03-08T07:40:08.648Z,12.6
2019-03-08T07:42:21.628Z,11.3
2019-03-08T07:43:28.001Z,10.2
2019-03-08T07:44:34.591Z,11.4
2019-03-08T07:46:47.596Z,13
2019-03-08T07:47:54.121Z,11
2019-03-08T07:49:00.000Z,12.3
2019-03-08T07:50:07.085Z,11.5
2019-03-08T07:52:20.011Z,12.2
2019-03-08T07:53:26.608Z,13.1
2019-03-08T07:54:33.068Z,14.3
2019-03-08T07:55:39.594Z,11.1
2019-03-08T07:57:52.585Z,13.3
2019-03-08T07:58:59.083Z,9.5
2019-03-08T08:00:05.598Z,13.3
2019-03-08T08:01:12.056Z,13
2019-03-08T08:03:25.039Z,16.4
2019-03-08T08:04:31.558Z,13.6
2019-03-08T08:05:38.079Z,12.7
2019-03-08T08:06:44.520Z,10.9
2019-03-08T08:08:57.549Z,14.4
2019-03-08T08:10:04.062Z,14
2019-03-08T08:11:10.521Z,15.5
2019-03-08T08:12:17.037Z,13.9
2019-03-08T08:13:23.508Z,16
2019-03-08T08:15:36.526Z,12.8
2019-03-08T08:16:43.051Z,14.5
2019-03-08T08:17:49.495Z,14.2
2019-03-08T08:18:56.031Z,14.5
2019-03-08T08:20:02.488Z,16.1
2019-03-08T08:21:08.876Z,10.9
2019-03-08T08:23:22.000Z,13.8
2019-03-08T08:26:41.506Z,11.6
2019-03-08T08:27:47.968Z,12
2019-03-08T08:28:54.499Z,15.1
2019-03-08T08:30:00.962Z,13.2
2019-03-08T08:31:07.470Z,14.7
2019-03-08T08:32:14.000Z,13.8
2019-03-08T08:33:20.481Z,16.6
2019-03-08T08:35:33.464Z,14.6
2019-03-08T08:38:57.968Z,17.2
2019-03-08T08:39:59.469Z,16.3
2019-03-08T08:42:12.456Z,16.9
2019-03-08T08:43:18.902Z,14.2
2019-03-08T08:48:51.040Z,13
2019-03-08T08:49:57.940Z,16.1
2019-03-08T08:52:10.091Z,12.5
2019-03-08T08:53:17.386Z,14.8
2019-03-08T08:54:23.860Z,15.4
2019-03-08T08:55:30.409Z,15
2019-03-08T08:57:43.365Z,15.6
2019-03-08T08:58:49.850Z,13.7
2019-03-08T08:59:56.342Z,16.3
2019-03-08T09:01:02.085Z,15.6
2019-03-08T09:02:09.382Z,17
2019-03-08T09:03:15.832Z,13.6
2019-03-08T09:05:28.088Z,17.3
2019-03-08T09:06:35.388Z,14.6
2019-03-08T09:08:48.326Z,17.8
2019-03-08T09:09:54.847Z,16.6
2019-03-08T09:14:20.845Z,12.3
2019-03-08T09:16:33.842Z,15.8
2019-03-08T09:17:40.307Z,14.8
2019-03-08T09:20:59.773Z,18
2019-03-08T09:24:19.275Z,19.7
2019-03-08T09:28:45.262Z,15.7
2019-03-08T09:29:51.767Z,15.8
2019-03-08T09:32:04.793Z,15.8
2019-03-08T09:34:17.763Z,16.4
2019-03-08T09:36:30.749Z,18.9
2019-03-08T09:37:37.260Z,13.7
2019-03-08T09:38:43.622Z,15.2
2019-03-08T09:40:56.722Z,16.5
2019-03-08T09:42:03.269Z,19.9
2019-03-08T09:44:16.000Z,17.2
2019-03-08T09:45:22.707Z,16.2
2019-03-08T09:47:35.073Z,17.5
2019-03-08T09:48:42.089Z,15.7
2019-03-08T09:49:48.000Z,16.7
2019-03-08T09:50:55.018Z,15.9
2019-03-08T09:52:01.692Z,19.5
2019-03-08T09:53:08.182Z,16.8
2019-03-08T09:55:21.192Z,18.3
2019-03-08T09:56:27.688Z,15.5
2019-03-08T09:58:40.071Z,14
2019-03-08T09:59:47.206Z,17.1
2019-03-08T10:03:06.699Z,14.9
2019-03-08T10:05:19.637Z,13.9
2019-03-08T10:07:32.068Z,15.1
2019-03-08T10:08:39.182Z,12.9
2019-03-08T10:09:45.645Z,13.8
2019-03-08T10:10:52.143Z,16.6
2019-03-08T10:11:58.623Z,12
2019-03-08T10:15:18.130Z,15.3
2019-03-08T10:18:37.640Z,10.7
2019-03-08T10:19:44.138Z,16.1
2019-03-08T10:20:50.645Z,13.6
2019-03-08T10:23:03.605Z,16.1
2019-03-08T10:24:10.113Z,15.4
2019-03-08T10:25:16.606Z,12.1
2019-03-08T10:27:29.607Z,15.6
2019-03-08T10:30:49.080Z,13.3
2019-03-08T10:31:55.569Z,15.1
2019-03-08T10:33:02.098Z,14.5
2019-03-08T10:34:08.584Z,13.9
2019-03-08T10:35:15.087Z,12.6
2019-03-08T10:36:21.597Z,13
2019-03-08T10:38:34.562Z,13.6
2019-03-08T10:39:41.055Z,15.1
2019-03-08T10:40:47.566Z,9.6
2019-03-08T10:41:54.065Z,12.3
2019-03-08T10:46:20.043Z,14.4
2019-03-08T10:47:26.551Z,14.4
2019-03-08T10:50:46.011Z,12.6
2019-03-08T10:51:52.051Z,12.5
2019-03-08T10:52:58.994Z,11.9
2019-03-08T10:54:05.515Z,10.5
2019-03-08T10:55:12.040Z,12.7
2019-03-08T10:57:24.982Z,12.6
2019-03-08T10:58:31.478Z,12.5
2019-03-08T10:59:37.957Z,9.1
2019-03-08T11:06:16.983Z,11.2
2019-03-08T11:07:23.488Z,11.1
2019-03-08T11:10:42.971Z,12.9
2019-03-08T11:12:55.961Z,10.4
2019-03-08T11:14:02.047Z,12.2
2019-03-08T11:15:08.991Z,10
2019-03-08T11:16:15.047Z,10.2
2019-03-08T11:17:21.970Z,11.2
2019-03-08T11:18:28.048Z,10.3
2019-03-08T11:20:41.443Z,13
2019-03-08T11:22:54.432Z,9.2
2019-03-08T11:24:00.924Z,10.3
2019-03-08T11:25:07.455Z,9.5
2019-03-08T11:28:26.914Z,11.3
2019-03-08T11:29:33.450Z,11
2019-03-08T11:30:39.874Z,12.8
2019-03-08T11:32:52.863Z,12.4
2019-03-08T11:33:59.428Z,14.1
2019-03-08T11:35:05.863Z,12.4
2019-03-08T11:36:12.427Z,12.8
2019-03-08T11:37:18.855Z,12.1
2019-03-08T11:38:25.364Z,11.2
2019-03-08T11:39:31.896Z,10.6
2019-03-08T11:40:38.393Z,12.6
2019-03-08T11:45:04.036Z,15.4
2019-03-08T11:48:23.846Z,12.3
2019-03-08T11:50:36.808Z,11.5
2019-03-08T11:51:43.349Z,12.3
2019-03-08T11:52:49.834Z,13.9
2019-03-08T11:53:56.332Z,14.1
2019-03-08T11:56:09.302Z,14
2019-03-08T11:57:15.805Z,13.1
2019-03-08T11:59:28.832Z,11.7
2019-03-08T12:02:48.276Z,10.3
2019-03-08T12:03:54.799Z,12.7
2019-03-08T12:07:14.284Z,12
2019-03-08T12:08:20.763Z,10.9
2019-03-08T12:09:27.281Z,10
2019-03-08T12:11:40.291Z,11
2019-03-08T12:12:46.741Z,9.5
2019-03-08T12:13:53.240Z,12.5
2019-03-08T12:14:59.754Z,11.6
2019-03-08T12:16:06.255Z,11.8
2019-03-08T12:17:12.755Z,13
2019-03-08T12:18:19.245Z,12.4
2019-03-08T12:20:32.214Z,12.4
2019-03-08T12:22:45.209Z,12.3
2019-03-08T12:23:51.716Z,11.7
2019-03-08T12:24:58.227Z,11.9
2019-03-08T12:28:17.713Z,14.6
2019-03-08T12:29:24.170Z,12.6
2019-03-08T12:30:30.658Z,12.2
2019-03-08T12:31:37.200Z,11.5
2019-03-08T12:32:43.000Z,10.4
2019-03-08T12:33:50.153Z,12.3
2019-03-08T12:36:03.013Z,10.3
2019-03-08T12:37:09.637Z,11.2
2019-03-08T12:38:16.144Z,9.1
2019-03-08T12:42:42.137Z,11.7
2019-03-08T12:46:01.613Z,11
2019-03-08T12:47:08.078Z,11.9
2019-03-08T12:48:14.614Z,13.2
2019-03-08T12:49:21.060Z,11.6
2019-03-08T12:50:27.053Z,12.1
2019-03-08T12:51:34.000Z,12
2019-03-08T12:52:40.581Z,10.7
2019-03-08T12:53:47.055Z,13.5
2019-03-08T12:54:53.503Z,12.9
2019-03-08T12:56:00.066Z,11.3
2019-03-08T12:58:13.045Z,12.7
2019-03-08T12:59:19.523Z,16.1
2019-03-08T13:00:26.040Z,16.3
2019-03-08T13:01:32.480Z,14.6
2019-03-08T13:02:38.979Z,11.6
2019-03-08T13:03:45.516Z,10.1
2019-03-08T13:05:58.049Z,14.9
2019-03-08T13:07:04.990Z,11.2
2019-03-08T13:09:17.924Z,10.3
2019-03-08T13:10:24.425Z,11.1
2019-03-08T13:13:43.966Z,10.2
2019-03-08T13:15:56.914Z,11
2019-03-08T13:17:03.420Z,9.4
2019-03-08T13:18:09.914Z,11.5
2019-03-08T13:19:16.393Z,10.4
2019-03-08T13:21:29.401Z,9.3
2019-03-08T13:22:35.862Z,9.7
2019-03-08T13:23:42.416Z,9.9
2019-03-08T13:24:48.900Z,10.3
2019-03-08T13:25:55.363Z,9.1
2019-03-08T13:27:01.860Z,11.6
2019-03-08T13:28:08.346Z,12
2019-03-08T13:29:14.849Z,8.7
2019-03-08T13:30:21.370Z,10.7
2019-03-08T13:32:34.317Z,8.5
2019-03-08T13:33:40.824Z,12.4
2019-03-08T13:35:53.851Z,8.7
2019-03-08T13:37:00.290Z,11.2
2019-03-08T13:40:19.797Z,8.9
2019-03-08T13:41:26.262Z,10.6
2019-03-08T13:42:32.798Z,12.4
2019-03-08T13:44:45.793Z,11.4
2019-03-08T13:45:52.302Z,7.7
2019-03-08T13:46:58.739Z,9.3
2019-03-08T13:48:05.268Z,13.8
2019-03-08T13:49:11.756Z,7.7
2019-03-08T13:50:18.241Z,9.8
2019-03-08T13:51:24.761Z,6.6
2019-03-08T13:53:37.714Z,7.7
2019-03-08T13:55:50.717Z,6.7
2019-03-08T13:59:10.178Z,8.7
2019-03-08T14:00:16.646Z,11.4
2019-03-08T14:01:23.000Z,6.8
2019-03-08T14:03:36.140Z,10.9
2019-03-08T14:04:42.644Z,10.2
2019-03-08T14:05:49.153Z,9.7
2019-03-08T14:06:55.655Z,7.8
2019-03-08T14:08:02.112Z,6.2
2019-03-08T14:09:08.509Z,8.1
2019-03-08T14:10:15.132Z,8.9
2019-03-08T14:12:28.127Z,5.9
2019-03-08T14:14:41.137Z,6.4
2019-03-08T14:15:47.613Z,5.8
2019-03-08T14:16:54.111Z,5.2
2019-03-08T14:20:13.005Z,5.9
2019-03-08T14:22:26.550Z,5.1
2019-03-08T14:24:39.554Z,4.7
2019-03-08T14:25:46.056Z,6
2019-03-08T14:26:52.511Z,5.3
2019-03-08T14:27:59.055Z,6.7
2019-03-08T14:29:05.559Z,7.6
2019-03-08T14:31:18.488Z,6.5
2019-03-08T14:32:24.980Z,8.3
2019-03-08T14:34:37.992Z,8.4
2019-03-08T14:36:50.949Z,5.6
2019-03-08T14:37:57.475Z,3.9
2019-03-08T14:39:03.986Z,6.8
2019-03-08T14:42:23.456Z,7.6
2019-03-08T14:43:29.967Z,6.1
2019-03-08T14:45:42.948Z,9.6
2019-03-08T14:47:55.959Z,8.5
2019-03-08T14:49:02.391Z,7.1
2019-03-08T14:50:08.905Z,7.4
2019-03-08T14:51:15.411Z,5.6
2019-03-08T14:52:21.909Z,7
2019-03-08T14:53:28.400Z,7
2019-03-08T14:54:34.900Z,6.6
2019-03-08T14:55:41.391Z,8.5
2019-03-08T14:57:54.377Z,7.7
2019-03-08T14:59:00.869Z,7.4
2019-03-08T15:00:07.389Z,8.1
2019-03-08T15:01:13.836Z,7.9
2019-03-08T15:02:20.339Z,4.9
2019-03-08T15:04:33.325Z,7.5
2019-03-08T15:06:46.342Z,7.9
2019-03-08T15:07:52.000Z,5.7
2019-03-08T15:10:05.796Z,5.7
2019-03-08T15:11:12.300Z,6.3
2019-03-08T15:12:18.817Z,7.3
2019-03-08T15:13:25.291Z,6.1
2019-03-08T15:17:51.292Z,7.9
2019-03-08T15:18:57.730Z,8.5
2019-03-08T15:20:04.230Z,4.4
2019-03-08T15:21:10.726Z,8.1
2019-03-08T15:22:17.233Z,6.7
2019-03-08T15:23:23.722Z,7.1
2019-03-08T15:24:30.027Z,5.8
2019-03-08T15:25:36.740Z,7.3
2019-03-08T15:26:43.250Z,5.8
2019-03-08T15:27:49.695Z,6.7
2019-03-08T15:28:56.222Z,6.3
2019-03-08T15:30:02.684Z,10.4
2019-03-08T15:32:15.700Z,7.7
2019-03-08T15:33:22.174Z,7
2019-03-08T15:35:35.168Z,9.7
2019-03-08T15:36:41.718Z,5
2019-03-08T15:37:48.206Z,6.4
2019-03-08T15:38:54.677Z,6.7
2019-03-08T15:41:07.619Z,9.2
2019-03-08T15:42:14.016Z,7.6
2019-03-08T15:44:27.134Z,7.8
2019-03-08T15:45:33.658Z,6.8
2019-03-08T15:46:40.143Z,7.9
2019-03-08T15:47:46.000Z,5.7
2019-03-08T15:48:53.107Z,8.7
2019-03-08T15:51:06.132Z,5.4
2019-03-08T15:52:12.561Z,7
2019-03-08T15:56:38.000Z,8
2019-03-08T15:57:45.067Z,6.4
2019-03-08T15:58:51.000Z,4.6
2019-03-08T15:59:58.042Z,6.2
2019-03-08T16:01:04.559Z,8.4
2019-03-08T16:02:11.067Z,8.2
2019-03-08T16:04:23.992Z,6.5
2019-03-08T16:05:30.515Z,5.8
2019-03-08T16:07:43.543Z,4.6
2019-03-08T16:08:49.991Z,6.1
2019-03-08T16:09:56.501Z,5.9
2019-03-08T16:12:09.000Z,6.4
2019-03-08T16:14:22.485Z,5.8
2019-03-08T16:15:28.097Z,5.2
2019-03-08T16:16:35.504Z,5.7
2019-03-08T16:17:41.960Z,7.4
2019-03-08T16:19:54.980Z,6.5
2019-03-08T16:21:01.431Z,8.4
2019-03-08T16:23:14.412Z,6.3
2019-03-08T16:24:20.944Z,7.1
2019-03-08T16:25:27.411Z,8.4
2019-03-08T16:27:40.399Z,7.4
2019-03-08T16:28:46.908Z,9.1
2019-03-08T16:30:59.883Z,8
2019-03-08T16:33:12.087Z,7.2
2019-03-08T16:34:19.384Z,9.1
2019-03-08T16:35:25.889Z,9.4
2019-03-08T16:38:45.318Z,8.6
2019-03-08T16:39:51.851Z,7.1
2019-03-08T16:40:58.346Z,8.1
2019-03-08T16:44:17.828Z,7.4
2019-03-08T16:47:37.333Z,6.8
2019-03-08T16:48:43.809Z,14.4
2019-03-08T16:49:50.303Z,9.6
2019-03-08T16:52:03.249Z,6.1
2019-03-08T16:54:16.239Z,6.7
2019-03-08T16:55:22.744Z,10.1
2019-03-08T16:58:42.024Z,7
2019-03-08T17:02:01.755Z,6.5
2019-03-08T17:03:08.251Z,5.8
2019-03-08T17:04:14.068Z,7.4
2019-03-08T17:05:21.214Z,6.2
2019-03-08T17:06:27.717Z,6.7
2019-03-08T17:07:34.162Z,7.4
2019-03-08T17:12:00.145Z,8.2
2019-03-08T17:13:06.669Z,7
2019-03-08T17:14:13.138Z,6.7
2019-03-08T17:15:19.618Z,5.2
2019-03-08T17:18:39.150Z,5.7
2019-03-08T17:19:45.624Z,6.9
2019-03-08T17:20:52.088Z,7.6
2019-03-08T17:21:58.061Z,5.1
2019-03-08T17:23:05.068Z,4.5
2019-03-08T17:24:11.599Z,5.2
2019-03-08T17:25:18.117Z,4.5
2019-03-08T17:26:24.564Z,7.7
2019-03-08T17:27:31.134Z,6.8
2019-03-08T17:29:44.078Z,7.5
2019-03-08T17:30:50.542Z,5.3
2019-03-08T17:33:03.509Z,4.1
2019-03-08T17:34:10.042Z,4.3
2019-03-08T17:35:16.548Z,4.8
2019-03-08T17:37:29.005Z,5.9
2019-03-08T17:38:36.000Z,6.5
2019-03-08T17:40:49.023Z,5.4
2019-03-08T17:41:55.477Z,3.4
2019-03-08T17:43:01.975Z,6.4
2019-03-08T17:45:14.974Z,5.5
2019-03-08T17:47:27.942Z,5.7
2019-03-08T17:48:34.488Z,5.7
2019-03-08T17:50:47.419Z,4.9
2019-03-08T17:51:53.942Z,5.4
2019-03-08T17:53:00.448Z,4.9
2019-03-08T17:56:19.947Z,5
2019-03-08T17:57:26.406Z,5.5
2019-03-08T17:59:39.380Z,4.6
2019-03-08T18:00:45.899Z,4.5
2019-03-08T18:01:52.405Z,6.3
2019-03-08T18:04:05.333Z,4.9
2019-03-08T18:05:11.861Z,6.9
2019-03-08T18:06:18.351Z,6
2019-03-08T18:08:31.361Z,4.7
2019-03-08T18:10:44.317Z,6.4
2019-03-08T18:11:50.843Z,7.9
2019-03-08T18:12:57.351Z,7.8
2019-03-08T18:14:03.800Z,8.5
2019-03-08T18:16:16.776Z,7.3
2019-03-08T18:17:23.272Z,8.6
2019-03-08T18:18:29.770Z,6.6
2019-03-08T18:19:36.282Z,8.5
2019-03-08T18:20:42.814Z,7.5
2019-03-08T18:22:55.743Z,8.3
2019-03-08T18:24:02.279Z,6
2019-03-08T18:25:08.720Z,7.7
2019-03-08T18:27:21.731Z,7.7
2019-03-08T18:28:28.240Z,6.5
2019-03-08T18:29:34.732Z,8.1
2019-03-08T18:31:47.681Z,7.3
2019-03-08T18:32:54.188Z,7.6
2019-03-08T18:35:07.023Z,7.5
2019-03-08T18:36:13.679Z,9.9
2019-03-08T18:38:26.667Z,17.4
2019-03-08T18:39:33.177Z,13
2019-03-08T18:43:59.153Z,10.5
2019-03-08T18:45:05.659Z,9.4
2019-03-08T18:47:18.635Z,9.9
2019-03-08T18:48:25.159Z,10.8
2019-03-08T18:50:38.012Z,16.3
2019-03-08T18:51:44.624Z,13.4
2019-03-08T18:52:51.110Z,10.8
2019-03-08T18:53:57.006Z,8.7
2019-03-08T18:55:04.123Z,10.3
2019-03-08T18:56:10.595Z,10.1
2019-03-08T18:58:23.539Z,9.2
2019-03-08T18:59:30.055Z,9
2019-03-08T19:00:36.574Z,9
2019-03-08T19:01:43.033Z,11.6
2019-03-08T19:02:49.552Z,8.3
2019-03-08T19:03:56.062Z,12.9
2019-03-08T19:06:09.018Z,8.7
2019-03-08T19:09:28.489Z,9.8
2019-03-08T19:10:34.099Z,12.5
2019-03-08T19:11:41.528Z,10
2019-03-08T19:12:47.984Z,12.7
2019-03-08T19:13:54.501Z,12.4
2019-03-08T19:15:00.956Z,11.4
2019-03-08T19:16:07.481Z,10.2
2019-03-08T19:17:14.001Z,10.6
2019-03-08T19:18:20.477Z,9.4
2019-03-08T19:19:26.966Z,10
2019-03-08T19:21:39.949Z,10.1
2019-03-08T19:22:46.454Z,8.9
2019-03-08T19:23:52.923Z,8.9
2019-03-08T19:24:59.437Z,9.9
2019-03-08T19:26:05.959Z,13.7
2019-03-08T19:27:12.042Z,10.6
2019-03-08T19:28:18.888Z,11
2019-03-08T19:30:31.922Z,14
2019-03-08T19:31:38.431Z,10.9
2019-03-08T19:32:44.917Z,11.5
2019-03-08T19:33:51.378Z,9.7
2019-03-08T19:34:57.851Z,15
2019-03-08T19:36:04.340Z,13.1
2019-03-08T19:37:10.882Z,13.9
2019-03-08T19:38:17.394Z,14.8
2019-03-08T19:39:23.833Z,13.2
2019-03-08T19:40:30.363Z,14.3
2019-03-08T19:41:36.887Z,24.5
2019-03-08T19:43:49.857Z,19.2
2019-03-08T19:44:56.360Z,15.8
2019-03-08T19:46:02.082Z,13.6
2019-03-08T19:47:09.300Z,23
2019-03-08T19:49:22.294Z,21.1
2019-03-08T19:50:28.819Z,11.6
2019-03-08T19:51:35.305Z,14.9
2019-03-08T19:52:41.876Z,19.2
2019-03-08T19:53:48.297Z,19.4
2019-03-08T19:54:54.771Z,19.3
2019-03-08T19:56:01.287Z,16.6
2019-03-08T19:57:07.739Z,12.1
2019-03-08T19:58:14.262Z,10.7
2019-03-08T20:01:33.737Z,19.8
2019-03-08T20:02:40.242Z,13.2
2019-03-08T20:03:46.755Z,12.4
2019-03-08T20:04:53.211Z,9.4
2019-03-08T20:08:12.673Z,10.6
2019-03-08T20:09:19.181Z,16.2
2019-03-08T20:12:38.660Z,14
2019-03-08T20:13:45.157Z,15.4
2019-03-08T20:14:51.069Z,10.1
2019-03-08T20:17:04.679Z,10.6
2019-03-08T20:18:11.136Z,16.2
2019-03-08T20:19:17.649Z,11
2019-03-08T20:20:24.164Z,12.1
2019-03-08T20:21:30.618Z,13.6
2019-03-08T20:22:37.015Z,12.3
2019-03-08T20:23:43.621Z,13.3
2019-03-08T20:24:50.012Z,12.8
2019-03-08T20:25:56.643Z,13.3
2019-03-08T20:28:09.633Z,9.9
2019-03-08T20:30:22.633Z,10.7
2019-03-08T20:32:35.573Z,11
2019-03-08T20:33:42.049Z,12.9
2019-03-08T20:35:55.060Z,10.1
2019-03-08T20:37:01.580Z,10
2019-03-08T20:38:08.041Z,8.8
2019-03-08T20:39:14.543Z,9
2019-03-08T20:40:21.037Z,9.6
2019-03-08T20:41:27.514Z,12.7
2019-03-08T20:42:34.017Z,9
2019-03-08T20:43:40.054Z,13
2019-03-08T20:45:53.496Z,11.7
2019-03-08T20:47:00.028Z,11.5
2019-03-08T20:48:06.505Z,11.3
2019-03-08T20:49:13.021Z,11
2019-03-08T20:50:19.450Z,11.6
2019-03-08T20:51:25.937Z,8.1
2019-03-08T20:52:32.443Z,11
2019-03-08T20:53:38.948Z,9.2
2019-03-08T20:54:45.456Z,12.2
2019-03-08T20:55:51.978Z,9.5
2019-03-08T20:58:04.952Z,13.2
2019-03-08T20:59:11.041Z,14.8
2019-03-08T21:02:30.089Z,12.4
2019-03-08T21:04:43.891Z,11.3
2019-03-08T21:06:56.917Z,13.8
2019-03-08T21:10:16.357Z,13.4
2019-03-08T21:11:22.087Z,12
2019-03-08T21:14:42.035Z,10.9
2019-03-08T21:16:55.035Z,10.8
2019-03-08T21:18:01.807Z,10.8
2019-03-08T21:19:08.381Z,9.3
2019-03-08T21:20:14.835Z,9
2019-03-08T21:22:27.778Z,12.7
2019-03-08T21:23:34.320Z,11.3
2019-03-08T21:25:47.322Z,13.8
2019-03-08T21:26:53.767Z,12.3